sensor_id;sensor_type;location;lat;lon;timestamp;P1;durP1;ratioP1;P2;durP2;ratioP2
68484;SDS011;55472;50.060;21.960;2022-12-05T00:01:23;22.83;;;7.68;;
68484;SDS011;55472;50.060;21.960;2022-12-05T00:04:01;21.58;;;8.25;;
68484;SDS011;55472;50.060;21.960;2022-12-05T00:06:32;24.02;;;7.80;;
68484;SDS011;55472;50.060;21.960;2022-12-05T00:08:59;21.38;;;7.28;;
68484;SDS011;55472;50.060;21.960;2022-12-05T00:11:27;21.97;;;7.70;;
68484;SDS011;55472;50.060;21.960;2022-12-05T00:13:56;21.65;;;6.90;;
68484;SDS011;55472;50.060;21.960;2022-12-05T00:16:25;21.08;;;7.03;;
68484;SDS011;55472;50.060;21.960;2022-12-05T00:18:53;21.02;;;7.35;;
68484;SDS011;55472;50.060;21.960;2022-12-05T00:21:20;22.37;;;7.83;;
68484;SDS011;55472;50.060;21.960;2022-12-05T00:23:49;24.92;;;8.80;;
68484;SDS011;55472;50.060;21.960;2022-12-05T00:26:16;24.48;;;8.35;;
68484;SDS011;55472;50.060;21.960;2022-12-05T00:28:43;21.00;;;7.25;;
68484;SDS011;55472;50.060;21.960;2022-12-05T00:31:13;25.38;;;8.93;;
68484;SDS011;55472;50.060;21.960;2022-12-05T00:33:43;24.13;;;8.97;;
68484;SDS011;55472;50.060;21.960;2022-12-05T00:36:11;24.70;;;9.05;;
68484;SDS011;55472;50.060;21.960;2022-12-05T00:38:49;16.17;;;6.00;;
68484;SDS011;55472;50.060;21.960;2022-12-05T00:41:17;26.55;;;9.60;;
68484;SDS011;55472;50.060;21.960;2022-12-05T00:43:45;24.23;;;8.57;;
68484;SDS011;55472;50.060;21.960;2022-12-05T00:46:16;21.90;;;7.50;;
68484;SDS011;55472;50.060;21.960;2022-12-05T00:48:46;24.75;;;7.63;;
68484;SDS011;55472;50.060;21.960;2022-12-05T00:51:14;22.83;;;8.32;;
68484;SDS011;55472;50.060;21.960;2022-12-05T00:53:47;24.90;;;8.63;;
68484;SDS011;55472;50.060;21.960;2022-12-05T00:56:17;24.17;;;8.45;;
68484;SDS011;55472;50.060;21.960;2022-12-05T00:58:45;22.97;;;7.67;;
68484;SDS011;55472;50.060;21.960;2022-12-05T01:01:16;24.02;;;7.93;;
68484;SDS011;55472;50.060;21.960;2022-12-05T01:03:45;17.85;;;6.35;;
68484;SDS011;55472;50.060;21.960;2022-12-05T01:06:13;21.67;;;8.02;;
68484;SDS011;55472;50.060;21.960;2022-12-05T01:08:41;14.95;;;5.20;;
68484;SDS011;55472;50.060;21.960;2022-12-05T01:11:07;21.10;;;6.10;;
68484;SDS011;55472;50.060;21.960;2022-12-05T01:13:35;20.67;;;7.95;;
68484;SDS011;55472;50.060;21.960;2022-12-05T01:16:01;21.40;;;8.82;;
68484;SDS011;55472;50.060;21.960;2022-12-05T01:18:28;23.98;;;7.80;;
68484;SDS011;55472;50.060;21.960;2022-12-05T01:20:54;24.85;;;8.73;;
68484;SDS011;55472;50.060;21.960;2022-12-05T01:23:21;18.77;;;6.57;;
68484;SDS011;55472;50.060;21.960;2022-12-05T01:25:48;20.05;;;7.13;;
68484;SDS011;55472;50.060;21.960;2022-12-05T01:28:16;25.35;;;7.82;;
68484;SDS011;55472;50.060;21.960;2022-12-05T01:30:44;23.40;;;7.18;;
68484;SDS011;55472;50.060;21.960;2022-12-05T01:33:12;21.13;;;7.07;;
68484;SDS011;55472;50.060;21.960;2022-12-05T01:35:38;20.23;;;7.63;;
68484;SDS011;55472;50.060;21.960;2022-12-05T01:38:06;23.35;;;7.20;;
68484;SDS011;55472;50.060;21.960;2022-12-05T01:40:33;24.55;;;8.50;;
68484;SDS011;55472;50.060;21.960;2022-12-05T01:43:03;22.15;;;7.45;;
68484;SDS011;55472;50.060;21.960;2022-12-05T01:45:35;23.08;;;6.93;;
68484;SDS011;55472;50.060;21.960;2022-12-05T01:48:08;23.87;;;8.30;;
68484;SDS011;55472;50.060;21.960;2022-12-05T01:50:42;21.90;;;7.05;;
68484;SDS011;55472;50.060;21.960;2022-12-05T01:53:09;19.25;;;6.97;;
68484;SDS011;55472;50.060;21.960;2022-12-05T01:55:35;17.35;;;6.63;;
68484;SDS011;55472;50.060;21.960;2022-12-05T01:58:02;21.98;;;8.43;;
68484;SDS011;55472;50.060;21.960;2022-12-05T02:00:31;21.57;;;7.70;;
68484;SDS011;55472;50.060;21.960;2022-12-05T02:02:58;27.58;;;7.55;;
68484;SDS011;55472;50.060;21.960;2022-12-05T02:05:30;21.00;;;7.45;;
68484;SDS011;55472;50.060;21.960;2022-12-05T02:08:01;20.20;;;6.55;;
68484;SDS011;55472;50.060;21.960;2022-12-05T02:10:33;19.27;;;6.53;;
68484;SDS011;55472;50.060;21.960;2022-12-05T02:13:33;17.60;;;6.00;;
68484;SDS011;55472;50.060;21.960;2022-12-05T02:16:57;21.60;;;7.97;;
68484;SDS011;55472;50.060;21.960;2022-12-05T02:19:53;20.27;;;7.15;;
68484;SDS011;55472;50.060;21.960;2022-12-05T02:30:57;23.10;;;8.18;;
68484;SDS011;55472;50.060;21.960;2022-12-05T02:36:55;23.40;;;7.63;;
68484;SDS011;55472;50.060;21.960;2022-12-05T02:39:36;20.10;;;7.30;;
68484;SDS011;55472;50.060;21.960;2022-12-05T02:42:35;26.00;;;9.07;;
68484;SDS011;55472;50.060;21.960;2022-12-05T02:45:11;27.17;;;8.32;;
68484;SDS011;55472;50.060;21.960;2022-12-05T02:47:44;25.67;;;8.88;;
68484;SDS011;55472;50.060;21.960;2022-12-05T02:50:19;25.92;;;8.40;;
68484;SDS011;55472;50.060;21.960;2022-12-05T02:53:11;21.15;;;7.97;;
68484;SDS011;55472;50.060;21.960;2022-12-05T02:55:40;28.23;;;7.77;;
68484;SDS011;55472;50.060;21.960;2022-12-05T02:58:13;22.48;;;7.82;;
68484;SDS011;55472;50.060;21.960;2022-12-05T03:00:47;26.00;;;9.13;;
68484;SDS011;55472;50.060;21.960;2022-12-05T03:03:16;24.42;;;7.65;;
68484;SDS011;55472;50.060;21.960;2022-12-05T03:11:47;24.92;;;8.52;;
68484;SDS011;55472;50.060;21.960;2022-12-05T03:14:24;19.95;;;7.38;;
68484;SDS011;55472;50.060;21.960;2022-12-05T03:16:56;26.52;;;9.10;;
68484;SDS011;55472;50.060;21.960;2022-12-05T03:19:55;32.60;;;10.57;;
68484;SDS011;55472;50.060;21.960;2022-12-05T03:22:47;26.23;;;8.77;;
68484;SDS011;55472;50.060;21.960;2022-12-05T03:25:22;24.88;;;8.35;;
68484;SDS011;55472;50.060;21.960;2022-12-05T03:28:28;25.55;;;8.02;;
68484;SDS011;55472;50.060;21.960;2022-12-05T03:31:38;20.85;;;7.88;;
68484;SDS011;55472;50.060;21.960;2022-12-05T03:34:12;24.75;;;9.52;;
68484;SDS011;55472;50.060;21.960;2022-12-05T03:36:43;23.70;;;7.97;;
68484;SDS011;55472;50.060;21.960;2022-12-05T03:44:34;24.60;;;8.02;;
68484;SDS011;55472;50.060;21.960;2022-12-05T03:47:11;25.58;;;8.48;;
68484;SDS011;55472;50.060;21.960;2022-12-05T03:49:51;26.67;;;9.07;;
68484;SDS011;55472;50.060;21.960;2022-12-05T03:52:29;28.63;;;9.73;;
68484;SDS011;55472;50.060;21.960;2022-12-05T03:55:01;24.10;;;8.55;;
68484;SDS011;55472;50.060;21.960;2022-12-05T03:57:34;26.02;;;7.80;;
68484;SDS011;55472;50.060;21.960;2022-12-05T04:00:10;26.08;;;8.48;;
68484;SDS011;55472;50.060;21.960;2022-12-05T04:02:57;22.63;;;6.70;;
68484;SDS011;55472;50.060;21.960;2022-12-05T04:05:42;24.95;;;8.10;;
68484;SDS011;55472;50.060;21.960;2022-12-05T04:11:08;19.90;;;6.95;;
68484;SDS011;55472;50.060;21.960;2022-12-05T04:13:45;25.30;;;8.32;;
68484;SDS011;55472;50.060;21.960;2022-12-05T04:16:28;22.97;;;8.43;;
68484;SDS011;55472;50.060;21.960;2022-12-05T04:21:53;27.50;;;9.98;;
68484;SDS011;55472;50.060;21.960;2022-12-05T04:24:22;25.73;;;9.13;;
68484;SDS011;55472;50.060;21.960;2022-12-05T04:30:10;26.40;;;8.73;;
68484;SDS011;55472;50.060;21.960;2022-12-05T04:35:43;24.98;;;8.50;;
68484;SDS011;55472;50.060;21.960;2022-12-05T04:41:21;23.65;;;7.82;;
68484;SDS011;55472;50.060;21.960;2022-12-05T04:43:51;26.77;;;9.50;;
68484;SDS011;55472;50.060;21.960;2022-12-05T04:46:20;26.58;;;8.80;;
68484;SDS011;55472;50.060;21.960;2022-12-05T04:48:48;26.45;;;9.95;;
68484;SDS011;55472;50.060;21.960;2022-12-05T04:51:23;26.98;;;9.75;;
68484;SDS011;55472;50.060;21.960;2022-12-05T04:54:12;23.48;;;8.20;;
68484;SDS011;55472;50.060;21.960;2022-12-05T04:56:44;23.47;;;7.63;;
68484;SDS011;55472;50.060;21.960;2022-12-05T04:59:12;28.00;;;8.73;;
68484;SDS011;55472;50.060;21.960;2022-12-05T05:01:47;31.70;;;9.25;;
68484;SDS011;55472;50.060;21.960;2022-12-05T05:04:18;23.10;;;7.60;;
68484;SDS011;55472;50.060;21.960;2022-12-05T05:06:51;26.20;;;8.02;;
68484;SDS011;55472;50.060;21.960;2022-12-05T05:09:17;24.00;;;8.10;;
68484;SDS011;55472;50.060;21.960;2022-12-05T05:11:43;29.55;;;9.77;;
68484;SDS011;55472;50.060;21.960;2022-12-05T05:14:09;29.17;;;10.23;;
68484;SDS011;55472;50.060;21.960;2022-12-05T05:16:37;27.13;;;8.45;;
68484;SDS011;55472;50.060;21.960;2022-12-05T05:19:06;29.00;;;9.37;;
68484;SDS011;55472;50.060;21.960;2022-12-05T05:21:34;32.50;;;10.88;;
68484;SDS011;55472;50.060;21.960;2022-12-05T05:24:03;28.60;;;9.13;;
68484;SDS011;55472;50.060;21.960;2022-12-05T05:26:32;33.20;;;10.50;;
68484;SDS011;55472;50.060;21.960;2022-12-05T05:29:00;21.35;;;6.90;;
68484;SDS011;55472;50.060;21.960;2022-12-05T05:31:27;31.37;;;9.13;;
68484;SDS011;55472;50.060;21.960;2022-12-05T05:33:54;28.25;;;9.82;;
68484;SDS011;55472;50.060;21.960;2022-12-05T05:36:21;28.92;;;8.38;;
68484;SDS011;55472;50.060;21.960;2022-12-05T05:38:50;32.35;;;8.95;;
68484;SDS011;55472;50.060;21.960;2022-12-05T05:41:20;30.83;;;10.53;;
68484;SDS011;55472;50.060;21.960;2022-12-05T05:43:48;28.52;;;9.85;;
68484;SDS011;55472;50.060;21.960;2022-12-05T05:46:16;25.92;;;8.50;;
68484;SDS011;55472;50.060;21.960;2022-12-05T05:48:44;25.70;;;9.07;;
68484;SDS011;55472;50.060;21.960;2022-12-05T05:51:12;28.33;;;9.43;;
68484;SDS011;55472;50.060;21.960;2022-12-05T05:53:39;35.03;;;11.30;;
68484;SDS011;55472;50.060;21.960;2022-12-05T05:56:12;31.58;;;11.02;;
68484;SDS011;55472;50.060;21.960;2022-12-05T05:58:41;29.77;;;9.52;;
68484;SDS011;55472;50.060;21.960;2022-12-05T06:01:11;31.80;;;11.38;;
68484;SDS011;55472;50.060;21.960;2022-12-05T06:03:44;24.63;;;8.48;;
68484;SDS011;55472;50.060;21.960;2022-12-05T06:06:12;27.73;;;9.37;;
68484;SDS011;55472;50.060;21.960;2022-12-05T06:08:39;31.08;;;9.98;;
68484;SDS011;55472;50.060;21.960;2022-12-05T06:11:10;27.17;;;8.95;;
68484;SDS011;55472;50.060;21.960;2022-12-05T06:14:02;24.33;;;7.60;;
68484;SDS011;55472;50.060;21.960;2022-12-05T06:16:29;26.25;;;9.02;;
68484;SDS011;55472;50.060;21.960;2022-12-05T06:18:56;32.53;;;10.13;;
68484;SDS011;55472;50.060;21.960;2022-12-05T06:21:23;24.60;;;8.55;;
68484;SDS011;55472;50.060;21.960;2022-12-05T06:23:49;29.52;;;9.27;;
68484;SDS011;55472;50.060;21.960;2022-12-05T06:26:16;29.70;;;10.18;;
68484;SDS011;55472;50.060;21.960;2022-12-05T06:28:44;57.03;;;17.85;;
68484;SDS011;55472;50.060;21.960;2022-12-05T06:31:12;31.97;;;11.37;;
68484;SDS011;55472;50.060;21.960;2022-12-05T06:33:48;36.60;;;12.07;;
68484;SDS011;55472;50.060;21.960;2022-12-05T06:36:16;36.30;;;12.90;;
68484;SDS011;55472;50.060;21.960;2022-12-05T06:38:44;29.08;;;10.40;;
68484;SDS011;55472;50.060;21.960;2022-12-05T06:41:11;48.00;;;17.00;;
68484;SDS011;55472;50.060;21.960;2022-12-05T06:43:41;41.83;;;13.47;;
68484;SDS011;55472;50.060;21.960;2022-12-05T06:46:09;31.80;;;11.45;;
68484;SDS011;55472;50.060;21.960;2022-12-05T06:48:37;30.92;;;10.95;;
68484;SDS011;55472;50.060;21.960;2022-12-05T06:51:04;16.92;;;6.00;;
68484;SDS011;55472;50.060;21.960;2022-12-05T06:53:33;33.58;;;10.48;;
68484;SDS011;55472;50.060;21.960;2022-12-05T06:56:00;32.33;;;10.57;;
68484;SDS011;55472;50.060;21.960;2022-12-05T06:58:29;27.55;;;9.90;;
68484;SDS011;55472;50.060;21.960;2022-12-05T07:00:55;29.00;;;9.77;;
68484;SDS011;55472;50.060;21.960;2022-12-05T07:03:40;28.02;;;8.70;;
68484;SDS011;55472;50.060;21.960;2022-12-05T07:06:08;27.00;;;9.38;;
68484;SDS011;55472;50.060;21.960;2022-12-05T07:08:34;30.13;;;10.63;;
68484;SDS011;55472;50.060;21.960;2022-12-05T07:11:01;29.33;;;9.68;;
68484;SDS011;55472;50.060;21.960;2022-12-05T07:13:27;29.08;;;9.73;;
68484;SDS011;55472;50.060;21.960;2022-12-05T07:15:54;29.38;;;10.02;;
68484;SDS011;55472;50.060;21.960;2022-12-05T07:18:19;29.17;;;10.10;;
68484;SDS011;55472;50.060;21.960;2022-12-05T07:20:54;28.25;;;9.95;;
68484;SDS011;55472;50.060;21.960;2022-12-05T07:23:24;26.52;;;8.98;;
68484;SDS011;55472;50.060;21.960;2022-12-05T07:25:51;23.90;;;9.00;;
68484;SDS011;55472;50.060;21.960;2022-12-05T07:28:17;27.75;;;9.88;;
68484;SDS011;55472;50.060;21.960;2022-12-05T07:30:43;28.60;;;10.57;;
68484;SDS011;55472;50.060;21.960;2022-12-05T07:33:09;29.52;;;9.85;;
68484;SDS011;55472;50.060;21.960;2022-12-05T07:35:35;27.60;;;9.65;;
68484;SDS011;55472;50.060;21.960;2022-12-05T07:38:01;27.83;;;9.77;;
68484;SDS011;55472;50.060;21.960;2022-12-05T07:40:28;26.17;;;9.32;;
68484;SDS011;55472;50.060;21.960;2022-12-05T07:42:54;30.40;;;9.77;;
68484;SDS011;55472;50.060;21.960;2022-12-05T07:45:20;29.55;;;10.73;;
68484;SDS011;55472;50.060;21.960;2022-12-05T07:47:46;25.33;;;9.15;;
68484;SDS011;55472;50.060;21.960;2022-12-05T07:50:12;25.48;;;8.65;;
68484;SDS011;55472;50.060;21.960;2022-12-05T07:52:39;25.07;;;8.97;;
68484;SDS011;55472;50.060;21.960;2022-12-05T07:55:06;24.95;;;8.90;;
68484;SDS011;55472;50.060;21.960;2022-12-05T07:57:32;20.92;;;8.65;;
68484;SDS011;55472;50.060;21.960;2022-12-05T07:59:58;26.08;;;8.95;;
68484;SDS011;55472;50.060;21.960;2022-12-05T08:02:24;29.67;;;9.63;;
68484;SDS011;55472;50.060;21.960;2022-12-05T08:04:51;25.88;;;9.88;;
68484;SDS011;55472;50.060;21.960;2022-12-05T08:07:16;27.65;;;10.02;;
68484;SDS011;55472;50.060;21.960;2022-12-05T08:09:43;26.90;;;9.95;;
68484;SDS011;55472;50.060;21.960;2022-12-05T08:12:08;27.73;;;9.57;;
68484;SDS011;55472;50.060;21.960;2022-12-05T08:14:35;33.13;;;10.18;;
68484;SDS011;55472;50.060;21.960;2022-12-05T08:17:00;31.92;;;10.60;;
68484;SDS011;55472;50.060;21.960;2022-12-05T08:19:27;34.53;;;12.00;;
68484;SDS011;55472;50.060;21.960;2022-12-05T08:21:53;29.20;;;10.10;;
68484;SDS011;55472;50.060;21.960;2022-12-05T08:24:20;32.60;;;12.02;;
68484;SDS011;55472;50.060;21.960;2022-12-05T08:26:45;35.13;;;11.02;;
68484;SDS011;55472;50.060;21.960;2022-12-05T08:29:13;34.58;;;12.13;;
68484;SDS011;55472;50.060;21.960;2022-12-05T08:31:41;27.37;;;9.80;;
68484;SDS011;55472;50.060;21.960;2022-12-05T08:34:14;32.03;;;11.18;;
68484;SDS011;55472;50.060;21.960;2022-12-05T08:36:42;29.08;;;10.85;;
68484;SDS011;55472;50.060;21.960;2022-12-05T08:39:10;32.55;;;10.40;;
68484;SDS011;55472;50.060;21.960;2022-12-05T08:41:43;34.92;;;10.95;;
68484;SDS011;55472;50.060;21.960;2022-12-05T08:44:12;27.43;;;11.10;;
68484;SDS011;55472;50.060;21.960;2022-12-05T08:46:41;30.77;;;10.80;;
68484;SDS011;55472;50.060;21.960;2022-12-05T08:49:09;31.58;;;11.20;;
68484;SDS011;55472;50.060;21.960;2022-12-05T08:51:36;29.98;;;9.70;;
68484;SDS011;55472;50.060;21.960;2022-12-05T08:54:03;36.05;;;11.60;;
68484;SDS011;55472;50.060;21.960;2022-12-05T08:56:29;29.23;;;10.73;;
68484;SDS011;55472;50.060;21.960;2022-12-05T08:58:57;27.67;;;10.70;;
68484;SDS011;55472;50.060;21.960;2022-12-05T09:01:26;36.10;;;13.23;;
68484;SDS011;55472;50.060;21.960;2022-12-05T09:03:59;31.33;;;11.73;;
68484;SDS011;55472;50.060;21.960;2022-12-05T09:06:27;26.27;;;8.55;;
68484;SDS011;55472;50.060;21.960;2022-12-05T09:08:57;28.77;;;10.00;;
68484;SDS011;55472;50.060;21.960;2022-12-05T09:11:30;28.38;;;11.18;;
68484;SDS011;55472;50.060;21.960;2022-12-05T09:13:59;33.47;;;11.27;;
68484;SDS011;55472;50.060;21.960;2022-12-05T09:16:29;30.63;;;11.93;;
68484;SDS011;55472;50.060;21.960;2022-12-05T09:19:00;32.47;;;10.07;;
68484;SDS011;55472;50.060;21.960;2022-12-05T09:21:27;33.53;;;11.90;;
68484;SDS011;55472;50.060;21.960;2022-12-05T09:23:56;34.53;;;13.00;;
68484;SDS011;55472;50.060;21.960;2022-12-05T09:26:24;33.30;;;11.75;;
68484;SDS011;55472;50.060;21.960;2022-12-05T09:28:52;33.22;;;12.50;;
68484;SDS011;55472;50.060;21.960;2022-12-05T09:31:19;39.28;;;13.43;;
68484;SDS011;55472;50.060;21.960;2022-12-05T09:33:48;30.10;;;10.97;;
68484;SDS011;55472;50.060;21.960;2022-12-05T09:36:20;32.13;;;11.32;;
68484;SDS011;55472;50.060;21.960;2022-12-05T09:38:49;33.40;;;10.90;;
68484;SDS011;55472;50.060;21.960;2022-12-05T09:45:02;30.38;;;11.13;;
68484;SDS011;55472;50.060;21.960;2022-12-05T09:47:56;34.23;;;11.87;;
68484;SDS011;55472;50.060;21.960;2022-12-05T09:50:44;32.95;;;11.75;;
68484;SDS011;55472;50.060;21.960;2022-12-05T09:53:27;32.92;;;12.05;;
68484;SDS011;55472;50.060;21.960;2022-12-05T09:58:43;27.10;;;10.85;;
68484;SDS011;55472;50.060;21.960;2022-12-05T10:12:59;27.38;;;10.25;;
68484;SDS011;55472;50.060;21.960;2022-12-05T10:15:53;31.53;;;11.70;;
68484;SDS011;55472;50.060;21.960;2022-12-05T10:18:36;25.10;;;10.15;;
68484;SDS011;55472;50.060;21.960;2022-12-05T10:21:11;26.75;;;10.20;;
68484;SDS011;55472;50.060;21.960;2022-12-05T10:24:00;28.85;;;11.18;;
68484;SDS011;55472;50.060;21.960;2022-12-05T10:26:31;27.60;;;11.80;;
68484;SDS011;55472;50.060;21.960;2022-12-05T10:31:53;25.45;;;11.13;;
68484;SDS011;55472;50.060;21.960;2022-12-05T10:35:05;26.90;;;9.95;;
68484;SDS011;55472;50.060;21.960;2022-12-05T10:37:56;25.08;;;10.07;;
68484;SDS011;55472;50.060;21.960;2022-12-05T10:40:49;25.48;;;10.35;;
68484;SDS011;55472;50.060;21.960;2022-12-05T10:43:22;25.60;;;10.17;;
68484;SDS011;55472;50.060;21.960;2022-12-05T10:45:51;23.85;;;10.20;;
68484;SDS011;55472;50.060;21.960;2022-12-05T10:48:18;27.40;;;10.93;;
68484;SDS011;55472;50.060;21.960;2022-12-05T10:50:46;27.13;;;11.40;;
68484;SDS011;55472;50.060;21.960;2022-12-05T10:53:20;27.40;;;10.77;;
68484;SDS011;55472;50.060;21.960;2022-12-05T10:59:05;30.30;;;11.55;;
68484;SDS011;55472;50.060;21.960;2022-12-05T11:01:34;27.98;;;10.55;;
68484;SDS011;55472;50.060;21.960;2022-12-05T11:04:07;26.75;;;11.05;;
68484;SDS011;55472;50.060;21.960;2022-12-05T11:09:29;29.73;;;12.97;;
68484;SDS011;55472;50.060;21.960;2022-12-05T11:12:16;35.95;;;14.75;;
68484;SDS011;55472;50.060;21.960;2022-12-05T11:17:52;31.52;;;12.60;;
68484;SDS011;55472;50.060;21.960;2022-12-05T11:22:50;27.70;;;11.90;;
68484;SDS011;55472;50.060;21.960;2022-12-05T11:25:31;27.27;;;11.60;;
68484;SDS011;55472;50.060;21.960;2022-12-05T11:27:59;21.10;;;9.50;;
68484;SDS011;55472;50.060;21.960;2022-12-05T11:36:47;9.18;;;3.13;;
68484;SDS011;55472;50.060;21.960;2022-12-05T11:39:19;7.88;;;2.95;;
68484;SDS011;55472;50.060;21.960;2022-12-05T11:44:33;10.33;;;3.40;;
68484;SDS011;55472;50.060;21.960;2022-12-05T11:47:39;8.05;;;3.33;;
68484;SDS011;55472;50.060;21.960;2022-12-05T11:58:49;10.00;;;3.57;;
68484;SDS011;55472;50.060;21.960;2022-12-05T12:28:50;12.23;;;4.27;;
68484;SDS011;55472;50.060;21.960;2022-12-05T12:31:42;11.27;;;3.22;;
68484;SDS011;55472;50.060;21.960;2022-12-05T12:34:44;18.33;;;4.53;;
68484;SDS011;55472;50.060;21.960;2022-12-05T12:37:54;24.60;;;10.60;;
68484;SDS011;55472;50.060;21.960;2022-12-05T12:41:00;24.80;;;10.85;;
68484;SDS011;55472;50.060;21.960;2022-12-05T12:49:32;12.85;;;4.95;;
68484;SDS011;55472;50.060;21.960;2022-12-05T12:52:12;9.75;;;4.00;;
68484;SDS011;55472;50.060;21.960;2022-12-05T13:00:48;9.95;;;3.72;;
68484;SDS011;55472;50.060;21.960;2022-12-05T13:03:30;10.63;;;3.70;;
68484;SDS011;55472;50.060;21.960;2022-12-05T13:06:07;9.90;;;3.80;;
68484;SDS011;55472;50.060;21.960;2022-12-05T13:11:10;16.47;;;4.90;;
68484;SDS011;55472;50.060;21.960;2022-12-05T13:13:41;9.85;;;3.70;;
68484;SDS011;55472;50.060;21.960;2022-12-05T13:16:20;22.75;;;11.20;;
68484;SDS011;55472;50.060;21.960;2022-12-05T13:18:53;16.40;;;6.65;;
68484;SDS011;55472;50.060;21.960;2022-12-05T13:21:20;10.63;;;4.45;;
68484;SDS011;55472;50.060;21.960;2022-12-05T13:23:49;11.27;;;4.10;;
68484;SDS011;55472;50.060;21.960;2022-12-05T13:26:20;11.07;;;3.67;;
68484;SDS011;55472;50.060;21.960;2022-12-05T13:31:36;13.88;;;5.43;;
68484;SDS011;55472;50.060;21.960;2022-12-05T13:37:00;11.27;;;4.33;;
68484;SDS011;55472;50.060;21.960;2022-12-05T13:40:21;9.18;;;3.65;;
68484;SDS011;55472;50.060;21.960;2022-12-05T13:43:20;24.45;;;8.13;;
68484;SDS011;55472;50.060;21.960;2022-12-05T13:45:56;14.60;;;5.05;;
68484;SDS011;55472;50.060;21.960;2022-12-05T13:48:29;9.88;;;3.58;;
68484;SDS011;55472;50.060;21.960;2022-12-05T13:51:01;13.47;;;4.13;;
68484;SDS011;55472;50.060;21.960;2022-12-05T13:53:47;10.68;;;4.20;;
68484;SDS011;55472;50.060;21.960;2022-12-05T13:56:26;25.45;;;7.97;;
68484;SDS011;55472;50.060;21.960;2022-12-05T13:59:10;22.25;;;7.68;;
68484;SDS011;55472;50.060;21.960;2022-12-05T14:01:46;32.85;;;8.43;;
68484;SDS011;55472;50.060;21.960;2022-12-05T14:04:40;30.10;;;7.00;;
68484;SDS011;55472;50.060;21.960;2022-12-05T14:07:35;27.77;;;10.38;;
68484;SDS011;55472;50.060;21.960;2022-12-05T14:10:09;29.23;;;11.13;;
68484;SDS011;55472;50.060;21.960;2022-12-05T14:15:23;26.67;;;11.52;;
68484;SDS011;55472;50.060;21.960;2022-12-05T14:18:39;32.00;;;13.87;;
68484;SDS011;55472;50.060;21.960;2022-12-05T14:21:10;36.80;;;13.60;;
68484;SDS011;55472;50.060;21.960;2022-12-05T14:24:04;34.53;;;13.70;;
68484;SDS011;55472;50.060;21.960;2022-12-05T14:26:49;36.72;;;12.77;;
68484;SDS011;55472;50.060;21.960;2022-12-05T14:32:42;47.90;;;17.73;;
68484;SDS011;55472;50.060;21.960;2022-12-05T14:35:13;41.10;;;14.75;;
68484;SDS011;55472;50.060;21.960;2022-12-05T14:38:05;32.63;;;12.95;;
68484;SDS011;55472;50.060;21.960;2022-12-05T14:40:45;33.85;;;12.93;;
68484;SDS011;55472;50.060;21.960;2022-12-05T14:43:28;31.25;;;12.75;;
68484;SDS011;55472;50.060;21.960;2022-12-05T14:45:58;33.43;;;12.30;;
68484;SDS011;55472;50.060;21.960;2022-12-05T14:48:35;38.15;;;15.60;;
68484;SDS011;55472;50.060;21.960;2022-12-05T14:54:16;41.65;;;16.55;;
68484;SDS011;55472;50.060;21.960;2022-12-05T14:56:48;44.53;;;16.25;;
68484;SDS011;55472;50.060;21.960;2022-12-05T15:01:58;40.25;;;16.25;;
68484;SDS011;55472;50.060;21.960;2022-12-05T15:07:35;39.42;;;15.25;;
68484;SDS011;55472;50.060;21.960;2022-12-05T15:17:45;42.08;;;16.45;;
68484;SDS011;55472;50.060;21.960;2022-12-05T15:23:36;40.58;;;16.63;;
68484;SDS011;55472;50.060;21.960;2022-12-05T15:26:01;46.20;;;16.43;;
68484;SDS011;55472;50.060;21.960;2022-12-05T15:28:28;41.33;;;15.85;;
68484;SDS011;55472;50.060;21.960;2022-12-05T15:30:54;36.92;;;15.27;;
68484;SDS011;55472;50.060;21.960;2022-12-05T15:33:22;43.28;;;15.75;;
68484;SDS011;55472;50.060;21.960;2022-12-05T15:35:50;38.88;;;16.02;;
68484;SDS011;55472;50.060;21.960;2022-12-05T15:38:24;46.63;;;17.17;;
68484;SDS011;55472;50.060;21.960;2022-12-05T15:40:54;48.78;;;20.05;;
68484;SDS011;55472;50.060;21.960;2022-12-05T15:43:28;51.97;;;19.33;;
68484;SDS011;55472;50.060;21.960;2022-12-05T15:48:56;52.45;;;19.30;;
68484;SDS011;55472;50.060;21.960;2022-12-05T15:51:32;63.80;;;22.33;;
68484;SDS011;55472;50.060;21.960;2022-12-05T15:56:43;45.90;;;17.33;;
68484;SDS011;55472;50.060;21.960;2022-12-05T15:59:37;42.85;;;15.38;;
68484;SDS011;55472;50.060;21.960;2022-12-05T16:05:15;51.60;;;18.23;;
68484;SDS011;55472;50.060;21.960;2022-12-05T16:08:04;51.92;;;20.27;;
68484;SDS011;55472;50.060;21.960;2022-12-05T16:10:33;58.17;;;23.80;;
68484;SDS011;55472;50.060;21.960;2022-12-05T16:13:01;52.08;;;21.30;;
68484;SDS011;55472;50.060;21.960;2022-12-05T16:15:35;46.33;;;19.20;;
68484;SDS011;55472;50.060;21.960;2022-12-05T16:18:03;51.40;;;19.63;;
68484;SDS011;55472;50.060;21.960;2022-12-05T16:20:31;48.65;;;18.33;;
68484;SDS011;55472;50.060;21.960;2022-12-05T16:23:04;48.03;;;18.70;;
68484;SDS011;55472;50.060;21.960;2022-12-05T16:25:49;51.50;;;18.13;;
68484;SDS011;55472;50.060;21.960;2022-12-05T16:28:17;46.95;;;17.90;;
68484;SDS011;55472;50.060;21.960;2022-12-05T16:30:52;41.70;;;15.77;;
68484;SDS011;55472;50.060;21.960;2022-12-05T16:33:23;46.30;;;16.67;;
68484;SDS011;55472;50.060;21.960;2022-12-05T16:35:51;44.13;;;16.65;;
68484;SDS011;55472;50.060;21.960;2022-12-05T16:38:19;41.35;;;16.00;;
68484;SDS011;55472;50.060;21.960;2022-12-05T16:40:52;43.45;;;15.75;;
68484;SDS011;55472;50.060;21.960;2022-12-05T16:43:26;37.00;;;14.60;;
68484;SDS011;55472;50.060;21.960;2022-12-05T16:48:38;40.30;;;15.60;;
68484;SDS011;55472;50.060;21.960;2022-12-05T16:53:35;39.83;;;15.65;;
68484;SDS011;55472;50.060;21.960;2022-12-05T16:56:04;39.70;;;14.53;;
68484;SDS011;55472;50.060;21.960;2022-12-05T16:58:54;43.67;;;16.27;;
68484;SDS011;55472;50.060;21.960;2022-12-05T17:01:22;47.65;;;16.40;;
68484;SDS011;55472;50.060;21.960;2022-12-05T17:03:50;40.72;;;15.40;;
68484;SDS011;55472;50.060;21.960;2022-12-05T17:06:21;42.83;;;16.30;;
68484;SDS011;55472;50.060;21.960;2022-12-05T17:08:49;42.70;;;17.40;;
68484;SDS011;55472;50.060;21.960;2022-12-05T17:11:18;38.03;;;14.85;;
68484;SDS011;55472;50.060;21.960;2022-12-05T17:13:50;40.15;;;14.93;;
68484;SDS011;55472;50.060;21.960;2022-12-05T17:16:17;43.63;;;18.40;;
68484;SDS011;55472;50.060;21.960;2022-12-05T17:18:44;42.83;;;16.02;;
68484;SDS011;55472;50.060;21.960;2022-12-05T17:21:14;41.23;;;15.87;;
68484;SDS011;55472;50.060;21.960;2022-12-05T17:23:43;50.60;;;19.95;;
68484;SDS011;55472;50.060;21.960;2022-12-05T17:26:14;53.10;;;19.35;;
68484;SDS011;55472;50.060;21.960;2022-12-05T17:28:43;46.25;;;18.13;;
68484;SDS011;55472;50.060;21.960;2022-12-05T17:31:14;42.38;;;16.48;;
68484;SDS011;55472;50.060;21.960;2022-12-05T17:33:46;44.27;;;16.90;;
68484;SDS011;55472;50.060;21.960;2022-12-05T17:36:13;40.08;;;17.35;;
68484;SDS011;55472;50.060;21.960;2022-12-05T17:38:40;46.20;;;18.35;;
68484;SDS011;55472;50.060;21.960;2022-12-05T17:41:06;45.10;;;18.38;;
68484;SDS011;55472;50.060;21.960;2022-12-05T17:43:39;51.70;;;18.77;;
68484;SDS011;55472;50.060;21.960;2022-12-05T17:46:05;45.67;;;17.83;;